createdAt,value
2023-02-24T00:04:52.121Z,27.20
2023-02-24T00:09:54.230Z,28.08
2023-02-24T00:14:56.467Z,30.70
2023-02-24T00:19:58.614Z,28.52
2023-02-24T00:25:02.915Z,27.38
2023-02-24T00:30:06.664Z,25.98
2023-02-24T00:35:09.600Z,25.13
2023-02-24T00:40:12.428Z,25.40
2023-02-24T00:45:17.055Z,23.88
2023-02-24T00:50:19.270Z,24.98
2023-02-24T00:55:23.611Z,24.58
2023-02-24T01:00:26.095Z,24.40
2023-02-24T01:05:28.764Z,25.60
2023-02-24T01:10:30.983Z,25.40
2023-02-24T01:15:33.052Z,24.00
2023-02-24T01:20:35.730Z,25.23
2023-02-24T01:25:39.241Z,24.90
2023-02-24T01:30:43.331Z,26.15
2023-02-24T01:35:45.877Z,26.90
2023-02-24T01:40:56.793Z,26.05
2023-02-24T01:45:59.081Z,26.15
2023-02-24T01:51:02.110Z,25.83
2023-02-24T01:56:05.901Z,25.83
2023-02-24T02:01:10.466Z,26.08
2023-02-24T02:06:14.292Z,25.65
2023-02-24T02:11:23.906Z,26.38
2023-02-24T02:16:51.785Z,25.20
2023-02-24T02:22:05.864Z,25.88
2023-02-24T02:27:29.764Z,25.40
2023-02-24T02:32:57.588Z,24.17
2023-02-24T02:38:05.505Z,21.98
2023-02-24T02:43:32.456Z,22.17
2023-02-24T02:48:55.983Z,21.45
2023-02-24T02:54:16.783Z,20.92
2023-02-24T02:59:23.681Z,21.95
2023-02-24T03:04:26.912Z,22.67
2023-02-24T03:09:37.384Z,22.60
2023-02-24T03:14:46.403Z,21.98
2023-02-24T03:20:00.435Z,22.23
2023-02-24T03:25:05.492Z,21.70
2023-02-24T03:30:21.590Z,22.23
2023-02-24T03:35:28.151Z,22.50
2023-02-24T03:40:34.006Z,22.73
2023-02-24T03:45:38.631Z,22.38
2023-02-24T03:50:42.594Z,21.25
2023-02-24T03:56:00.838Z,22.50
2023-02-24T04:01:15.172Z,21.75
2023-02-24T04:06:59.958Z,21.80
2023-02-24T04:12:32.294Z,23.35
2023-02-24T04:17:42.959Z,23.48
2023-02-24T04:22:50.026Z,22.05
2023-02-24T04:27:54.897Z,21.48
2023-02-24T04:32:57.100Z,23.42
2023-02-24T04:37:59.658Z,21.80
2023-02-24T04:43:02.164Z,23.88
2023-02-24T04:48:04.409Z,23.80
2023-02-24T04:53:10.329Z,24.42
2023-02-24T04:58:19.570Z,23.42
2023-02-24T05:03:28.756Z,24.55
2023-02-24T05:08:31.555Z,24.50
2023-02-24T05:13:34.108Z,24.52
2023-02-24T05:18:37.507Z,23.65
2023-02-24T05:23:44.727Z,26.58
2023-02-24T05:28:52.510Z,25.80
2023-02-24T05:33:58.022Z,25.77
2023-02-24T05:39:07.010Z,27.40
2023-02-24T05:44:14.138Z,27.37
2023-02-24T05:49:24.248Z,28.55
2023-02-24T05:54:32.123Z,29.58
2023-02-24T05:59:35.214Z,27.98
2023-02-24T06:04:51.781Z,28.23
2023-02-24T06:09:57.645Z,28.02
2023-02-24T06:15:00.448Z,27.80
2023-02-24T06:20:05.526Z,28.00
2023-02-24T06:25:08.716Z,35.25
2023-02-24T06:30:11.717Z,36.13
2023-02-24T06:35:13.937Z,37.30
2023-02-24T06:40:16.482Z,35.55
2023-02-24T06:45:19.124Z,35.28
2023-02-24T06:50:22.055Z,36.20
2023-02-24T06:55:27.391Z,36.60
2023-02-24T07:00:41.412Z,35.53
2023-02-24T07:05:54.621Z,37.35
2023-02-24T07:11:00.157Z,35.75
2023-02-24T07:16:07.477Z,38.08
2023-02-24T07:21:12.943Z,37.40
2023-02-24T07:26:17.784Z,36.30
2023-02-24T07:31:23.350Z,36.22
2023-02-24T07:36:30.497Z,38.08
2023-02-24T07:41:33.118Z,36.88
2023-02-24T07:46:35.536Z,36.47
2023-02-24T07:51:37.786Z,35.80
2023-02-24T07:56:46.378Z,36.47
2023-02-24T08:01:52.103Z,34.95
2023-02-24T08:06:58.939Z,32.22
2023-02-24T08:12:01.698Z,30.85
2023-02-24T08:17:05.793Z,27.55
2023-02-24T08:22:25.819Z,25.10
2023-02-24T08:27:32.939Z,23.90
2023-02-24T08:32:38.217Z,25.92
2023-02-24T08:37:41.098Z,25.10
2023-02-24T08:42:43.213Z,24.08
2023-02-24T08:47:45.693Z,27.85
2023-02-24T08:52:47.804Z,26.42
2023-02-24T08:57:53.672Z,25.92
2023-02-24T09:02:56.508Z,24.40
2023-02-24T09:07:58.668Z,22.50
2023-02-24T09:13:01.572Z,22.20
2023-02-24T09:18:07.871Z,19.77
2023-02-24T09:23:20.456Z,20.95
2023-02-24T09:28:27.907Z,20.98
2023-02-24T09:33:42.143Z,23.88
2023-02-24T09:39:02.244Z,20.45
2023-02-24T09:49:24.993Z,20.60
2023-02-24T09:54:35.675Z,21.42
2023-02-24T10:00:25.211Z,23.17
2023-02-24T10:05:38.909Z,24.27
2023-02-24T10:11:01.071Z,22.02
2023-02-24T10:16:07.402Z,16.45
2023-02-24T10:21:31.972Z,15.48
2023-02-24T10:26:59.626Z,16.70
2023-02-24T10:32:19.123Z,17.25
2023-02-24T10:37:29.224Z,16.60
2023-02-24T10:42:34.894Z,16.02
2023-02-24T10:47:37.070Z,17.50
2023-02-24T10:52:53.631Z,16.77
2023-02-24T10:58:16.186Z,16.73
2023-02-24T11:03:36.668Z,16.98
2023-02-24T11:08:55.053Z,16.38
2023-02-24T11:14:22.424Z,17.60
2023-02-24T11:19:29.786Z,15.73
2023-02-24T11:24:32.361Z,14.85
2023-02-24T11:30:01.615Z,14.15
2023-02-24T11:35:21.393Z,13.45
2023-02-24T11:45:40.128Z,13.90
2023-02-24T11:50:47.241Z,12.30
2023-02-24T11:55:57.431Z,13.23
2023-02-24T12:01:10.606Z,13.65
2023-02-24T12:06:31.044Z,13.30
2023-02-24T12:11:41.207Z,11.85
2023-02-24T12:16:48.340Z,13.85
2023-02-24T12:22:16.099Z,12.73
2023-02-24T12:27:21.221Z,11.88
2023-02-24T12:32:43.224Z,11.75
2023-02-24T12:38:19.071Z,8.48
2023-02-24T12:43:26.878Z,9.90
2023-02-24T12:49:01.341Z,10.07
2023-02-24T12:54:14.446Z,9.40
2023-02-24T12:59:22.875Z,9.63
2023-02-24T13:05:04.111Z,8.47
2023-02-24T13:10:14.933Z,8.38
2023-02-24T13:15:26.139Z,9.27
2023-02-24T13:20:34.389Z,8.50
2023-02-24T13:25:37.905Z,8.55
2023-02-24T13:30:44.232Z,9.38
2023-02-24T13:35:49.467Z,9.48
2023-02-24T13:40:51.941Z,8.68
2023-02-24T13:45:58.300Z,8.48
2023-02-24T13:51:32.244Z,8.30
2023-02-24T13:56:43.244Z,7.90
2023-02-24T14:01:58.106Z,8.68
2023-02-24T14:07:04.329Z,7.95
2023-02-24T14:12:19.700Z,7.85
2023-02-24T14:17:29.951Z,7.50
2023-02-24T14:22:32.927Z,6.43
2023-02-24T14:27:35.649Z,8.68
2023-02-24T14:32:37.912Z,8.13
2023-02-24T14:37:40.220Z,8.55
2023-02-24T14:42:50.122Z,7.80
2023-02-24T14:47:54.084Z,8.45
2023-02-24T14:53:10.265Z,9.63
2023-02-24T14:58:18.109Z,8.48
2023-02-24T15:03:29.855Z,8.38
2023-02-24T15:08:43.638Z,8.85
2023-02-24T15:13:56.380Z,8.77
2023-02-24T15:19:01.669Z,8.18
2023-02-24T15:24:13.932Z,9.30
2023-02-24T15:29:23.218Z,8.65
2023-02-24T15:34:37.036Z,8.10
2023-02-24T15:39:43.136Z,9.05
2023-02-24T15:45:25.784Z,9.80
2023-02-24T15:50:30.435Z,12.82
2023-02-24T15:55:33.133Z,12.30
2023-02-24T16:00:35.492Z,12.35
2023-02-24T16:05:38.190Z,12.35
2023-02-24T16:10:41.169Z,11.10
2023-02-24T16:15:45.889Z,13.93
2023-02-24T16:20:54.906Z,14.93
2023-02-24T16:25:59.571Z,17.20
2023-02-24T16:31:02.874Z,14.73
2023-02-24T16:36:12.332Z,15.30
2023-02-24T16:41:14.484Z,18.75
2023-02-24T16:46:20.424Z,16.92
2023-02-24T16:51:23.184Z,16.65
2023-02-24T16:56:25.328Z,16.17
2023-02-24T17:01:27.522Z,17.20
2023-02-24T17:06:30.042Z,16.90
2023-02-24T17:11:33.194Z,17.38
2023-02-24T17:16:39.788Z,18.85
2023-02-24T17:21:44.728Z,18.38
2023-02-24T17:26:47.233Z,18.48
2023-02-24T17:31:49.517Z,19.17
2023-02-24T17:36:51.890Z,20.17
2023-02-24T17:41:54.115Z,19.58
2023-02-24T17:46:56.396Z,21.63
2023-02-24T17:51:58.588Z,24.33
2023-02-24T17:57:00.862Z,23.55
2023-02-24T18:02:03.598Z,21.63
2023-02-24T18:07:05.745Z,21.95
2023-02-24T18:12:07.966Z,23.80
2023-02-24T18:17:10.115Z,24.83
2023-02-24T18:22:12.289Z,25.52
2023-02-24T18:27:14.514Z,25.15
2023-02-24T18:32:16.904Z,25.15
2023-02-24T18:37:19.330Z,25.55
2023-02-24T18:42:21.494Z,26.02
2023-02-24T18:47:23.654Z,26.95
2023-02-24T18:52:25.824Z,28.13
2023-02-24T18:57:28.135Z,28.38
2023-02-24T19:02:30.568Z,27.58
2023-02-24T19:07:32.834Z,28.95
2023-02-24T19:12:34.934Z,27.63
2023-02-24T19:17:37.110Z,28.50
2023-02-24T19:22:39.251Z,30.77
2023-02-24T19:27:41.447Z,28.15
2023-02-24T19:32:43.738Z,29.15
2023-02-24T19:37:49.281Z,30.23
2023-02-24T19:42:53.385Z,35.22
2023-02-24T19:47:55.465Z,34.25
2023-02-24T19:52:57.633Z,36.10
2023-02-24T19:58:00.150Z,38.55
2023-02-24T20:03:02.244Z,36.22
2023-02-24T20:08:04.534Z,40.47
2023-02-24T20:13:07.275Z,40.30
2023-02-24T20:18:09.380Z,38.58
2023-02-24T20:23:11.529Z,38.40
2023-02-24T20:28:13.744Z,38.17
2023-02-24T20:33:16.688Z,41.33
2023-02-24T20:38:18.855Z,39.13
2023-02-24T20:43:21.379Z,38.65
2023-02-24T20:48:23.735Z,38.85
2023-02-24T20:53:25.862Z,43.08
2023-02-24T20:58:28.024Z,37.83
2023-02-24T21:03:30.127Z,39.50
2023-02-24T21:08:32.264Z,42.10
2023-02-24T21:13:43.159Z,40.67
2023-02-24T21:18:47.117Z,40.10
2023-02-24T21:23:50.788Z,43.22
2023-02-24T21:28:58.020Z,49.30
2023-02-24T21:34:00.236Z,43.53
2023-02-24T21:39:02.448Z,38.75
2023-02-24T21:44:05.371Z,36.28
2023-02-24T21:49:08.244Z,31.45
2023-02-24T21:54:12.740Z,33.35
2023-02-24T21:59:14.966Z,32.13
2023-02-24T22:04:19.243Z,32.13
2023-02-24T22:09:21.485Z,31.88
2023-02-24T22:14:23.675Z,31.27
2023-02-24T22:19:25.774Z,32.17
2023-02-24T22:24:27.913Z,35.22
2023-02-24T22:29:30.109Z,33.45
2023-02-24T22:34:32.270Z,34.95
2023-02-24T22:39:34.764Z,33.03
2023-02-24T22:44:38.209Z,34.85
2023-02-24T22:49:40.302Z,36.58
2023-02-24T22:54:43.004Z,35.00
2023-02-24T22:59:45.632Z,34.25
2023-02-24T23:04:47.811Z,35.53
2023-02-24T23:09:53.259Z,34.00
2023-02-24T23:14:55.465Z,36.03
2023-02-24T23:19:59.015Z,34.75
2023-02-24T23:25:01.644Z,34.42
2023-02-24T23:30:04.407Z,34.38
2023-02-24T23:35:07.082Z,33.30
2023-02-24T23:40:11.294Z,32.40
2023-02-24T23:45:13.425Z,31.38
2023-02-24T23:50:15.578Z,32.90
2023-02-24T23:55:17.853Z,31.67
